メインページ
METAR-TAF:

METAR-TAF

空港 :

ンジャメナ, チャド

ンジャメナ国際空港

緯度: 12-08N, 経度: 015-02E, 海抜: 295m

現時点の気象観測

当レポートは52分前の01:00(UTC)に作成
北/北東の風 5kt
気温 16°C
湿度 17%
気圧 1012 hPa
視程: 6000m

METAR: FTTJ 180100Z 02005KT 6000 NSC 16/M09 Q1012 NOSIG

時間: 02:52 (01:52 UTC)

予報

当レポートは2時間10分前の23:42(UTC)に作成
予報は18日の 00時(UTC)から 19日の 06時(UTC)まで有効
の風 7kt
視程: 8000m

TAF: FTTJ 172342Z 1800/1906 01007KT 8000 NSC

4,000以上の空港の気象観測と天気予報(METAR報とTAF報)

利用可能な観測所は地図上に黄色い丸と赤い丸で示す。

丸の上にカーソルを重ねると観測所名を参照できる。

次にクリックすると気象観測と天気予報を参照できる。

マップの切り替え:黒色「×」印の緑ボタンをクリックして拡大、「-」印の緑ボタンをクリックして縮小、緑色の三角印をクリックして隣りの地図に切り替え


METAR-TAF: